Time;durP1;ratioP1;P1;durP2;ratioP2;P2;SDS_P1;SDS_P2;PMS_P1;PMS_P2;Temp;Humidity;BMP_temperature;BMP_pressure;BME280_temperature;BME280_humidity;BME280_pressure;Samples;Min_cycle;Max_cycle;Signal;HPM_P1;HPM_P2
2022/04/28 00:02:25;;;;;;;39.72;25.73;;;;;;;7.27;88.61;100344.31;5000520;28;20042;-53
2022/04/28 00:04:50;;;;;;;38.83;23.27;;;;;;;7.34;87.76;100339.84;4997420;28;20118;-53
2022/04/28 00:07:16;;;;;;;34.80;23.15;;;;;;;7.60;87.18;100343.72;4998120;28;20366;-50
2022/04/28 00:09:41;;;;;;;39.40;23.70;;;;;;;7.25;86.42;100341.00;4989698;28;20038;-51
2022/04/28 00:12:08;;;;;;;49.30;24.45;;;;;;;6.95;86.96;100341.16;4989937;28;20050;-52
2022/04/28 00:14:34;;;;;;;35.53;22.10;;;;;;;6.74;88.74;100339.34;4992986;28;20088;-53
2022/04/28 00:16:59;;;;;;;36.88;23.13;;;;;;;6.48;89.40;100342.53;4992111;28;20047;-50
2022/04/28 00:19:25;;;;;;;38.13;24.67;;;;;;;6.40;91.16;100348.00;4995659;28;20702;-53
2022/04/28 00:21:50;;;;;;;43.92;25.30;;;;;;;6.38;91.41;100345.50;4994098;28;20454;-50
2022/04/28 00:24:16;;;;;;;50.60;24.77;;;;;;;6.44;93.16;100344.78;4991022;28;20038;-52
2022/04/28 00:26:42;;;;;;;37.25;23.13;;;;;;;6.68;92.78;100334.75;4992506;28;20516;-50
2022/04/28 00:29:07;;;;;;;40.10;26.33;;;;;;;6.69;90.74;100339.91;4997870;28;20062;-50
2022/04/28 00:31:33;;;;;;;44.97;24.63;;;;;;;6.81;92.31;100340.19;4993668;28;20112;-53
2022/04/28 00:33:58;;;;;;;41.70;25.38;;;;;;;7.16;90.24;100342.16;4997219;28;20544;-50
2022/04/28 00:36:23;;;;;;;40.00;24.63;;;;;;;6.92;88.33;100349.53;4996571;28;20042;-53
2022/04/28 00:38:49;;;;;;;47.17;26.60;;;;;;;6.63;90.77;100343.31;4997076;28;20034;-52
2022/04/28 00:41:14;;;;;;;37.28;23.60;;;;;;;6.50;89.03;100348.50;4993110;28;20049;-51
2022/04/28 00:43:53;;;;;;;42.33;24.95;;;;;;;6.19;91.59;100346.94;4989481;28;20411;-50
2022/04/28 00:46:19;;;;;;;41.30;26.17;;;;;;;6.27;92.62;100348.66;4996087;28;20034;-52
2022/04/28 00:51:34;;;;;;;39.70;25.33;;;;;;;6.17;93.74;100348.97;4994349;28;20044;-51
2022/04/28 00:54:00;;;;;;;43.60;25.17;;;;;;;6.17;92.48;100351.63;4999415;28;20488;-54
2022/04/28 00:56:29;;;;;;;46.90;25.63;;;;;;;6.33;94.58;100350.56;4994278;28;20057;-53
2022/04/28 00:58:55;;;;;;;51.88;27.13;;;;;;;6.29;93.39;100348.47;4989671;28;20048;-52
2022/04/28 01:01:20;;;;;;;49.03;28.15;;;;;;;6.52;92.54;100349.16;4998529;28;20045;-51
2022/04/28 01:03:46;;;;;;;47.35;28.33;;;;;;;6.65;92.82;100343.13;4994406;28;20061;-50
2022/04/28 01:06:12;;;;;;;53.60;29.02;;;;;;;6.72;91.78;100348.53;4995848;28;20038;-51
2022/04/28 01:08:37;;;;;;;52.50;29.15;;;;;;;6.79;90.45;100352.06;4995305;28;20034;-53
2022/04/28 01:11:03;;;;;;;56.88;28.70;;;;;;;6.75;89.79;100350.81;4996266;28;20400;-51
2022/04/28 01:13:28;;;;;;;53.25;31.13;;;;;;;6.80;89.76;100351.06;4996051;28;20445;-52
2022/04/28 01:15:54;;;;;;;54.67;30.85;;;;;;;6.80;89.16;100351.88;5000053;28;20610;-50
2022/04/28 01:18:19;;;;;;;60.45;32.55;;;;;;;6.82;89.52;100357.03;4992148;28;20042;-51
2022/04/28 01:20:45;;;;;;;58.95;32.17;;;;;;;6.77;89.30;100359.44;4994141;28;20042;-52
2022/04/28 01:23:11;;;;;;;64.03;31.95;;;;;;;6.82;88.86;100354.38;4993772;28;20374;-52
2022/04/28 01:25:36;;;;;;;59.47;32.00;;;;;;;6.72;89.33;100356.53;4999050;28;20069;-53
2022/04/28 01:28:01;;;;;;;61.70;31.35;;;;;;;6.88;88.40;100351.75;4996451;28;20135;-50
2022/04/28 01:30:27;;;;;;;55.17;32.25;;;;;;;6.80;88.98;100354.56;4989540;28;20038;-53
2022/04/28 01:32:53;;;;;;;54.38;29.02;;;;;;;6.64;88.33;100344.13;4988676;28;20062;-52
2022/04/28 01:35:18;;;;;;;55.05;30.90;;;;;;;6.68;90.72;100359.56;4995946;28;20044;-52
2022/04/28 01:37:44;;;;;;;54.28;30.58;;;;;;;6.53;90.17;100361.44;4994284;28;20022;-52
2022/04/28 01:40:11;;;;;;;55.45;30.48;;;;;;;6.44;90.68;100354.56;4992092;28;20033;-54
2022/04/28 01:42:39;;;;;;;57.78;30.63;;;;;;;6.48;91.30;100361.19;4993895;28;20026;-52
2022/04/28 01:45:06;;;;;;;59.03;33.05;;;;;;;6.32;91.00;100353.44;4994899;28;20713;-52
2022/04/28 01:47:33;;;;;;;59.30;32.15;;;;;;;6.25;91.05;100362.16;4990152;28;20033;-50
2022/04/28 01:49:58;;;;;;;63.83;33.55;;;;;;;6.36;91.89;100362.69;4987173;28;20026;-51
2022/04/28 01:55:08;;;;;;;49.95;28.05;;;;;;;5.71;91.66;100362.44;4990728;28;20045;-50
2022/04/28 01:57:33;;;;;;;45.88;27.05;;;;;;;5.58;93.50;100360.41;4998060;28;20026;-50
2022/04/28 01:59:59;;;;;;;56.53;30.27;;;;;;;5.61;93.98;100364.53;4991830;28;20049;-51
2022/04/28 02:02:24;;;;;;;58.72;33.67;;;;;;;5.72;95.51;100374.72;4991481;28;20133;-50
2022/04/28 02:04:50;;;;;;;62.38;32.33;;;;;;;5.76;94.71;100365.38;4989143;28;20022;-51
2022/04/28 02:07:15;;;;;;;66.10;31.08;;;;;;;5.68;95.10;100365.47;4987317;28;20082;-52
2022/04/28 02:09:41;;;;;;;67.05;34.78;;;;;;;5.69;94.93;100368.94;4994541;28;20057;-51
2022/04/28 02:12:08;;;;;;;64.78;34.38;;;;;;;5.80;97.11;100371.97;4991296;28;20162;-51
2022/04/28 02:14:33;;;;;;;65.43;34.90;;;;;;;5.75;95.87;100365.56;4995184;28;20134;-52
2022/04/28 02:16:59;;;;;;;63.25;33.22;;;;;;;5.70;94.89;100363.44;4995440;28;20448;-53
2022/04/28 02:19:24;;;;;;;69.45;34.47;;;;;;;5.61;94.12;100367.19;4995599;28;20034;-52
2022/04/28 02:21:49;;;;;;;68.05;32.20;;;;;;;5.84;97.71;100364.44;4988775;28;20038;-53
2022/04/28 02:24:15;;;;;;;65.07;34.05;;;;;;;5.79;95.59;100362.34;4987820;28;20029;-50
2022/04/28 02:26:40;;;;;;;62.53;33.95;;;;;;;5.61;94.52;100364.53;4995263;28;20494;-50
2022/04/28 02:29:06;;;;;;;58.08;32.55;;;;;;;5.52;96.28;100365.66;4990443;28;20334;-52
2022/04/28 02:31:31;;;;;;;64.28;33.65;;;;;;;5.34;94.41;100366.81;5006485;28;20038;-50
2022/04/28 02:33:57;;;;;;;71.32;36.65;;;;;;;5.32;95.40;100358.19;4987756;28;20030;-53
2022/04/28 02:36:24;;;;;;;70.93;36.58;;;;;;;5.28;95.22;100364.03;4996625;28;20508;-50
2022/04/28 02:38:50;;;;;;;70.85;35.03;;;;;;;5.36;96.46;100362.09;4989111;28;20030;-52
2022/04/28 02:41:20;;;;;;;80.15;36.45;;;;;;;5.38;96.06;100362.75;4995936;28;20113;-49
2022/04/28 02:43:45;;;;;;;79.30;37.33;;;;;;;5.33;95.75;100367.78;4996580;28;20113;-53
2022/04/28 02:46:11;;;;;;;72.07;37.05;;;;;;;5.31;96.50;100369.81;4993287;28;20517;-51
2022/04/28 02:48:37;;;;;;;78.15;37.78;;;;;;;5.31;95.93;100368.97;4988600;28;20034;-53
2022/04/28 02:51:02;;;;;;;85.25;39.22;;;;;;;5.31;96.10;100369.81;4988736;28;20053;-50
2022/04/28 02:53:28;;;;;;;74.68;38.65;;;;;;;5.37;95.76;100370.94;4989252;28;20031;-49
2022/04/28 02:55:53;;;;;;;86.43;40.15;;;;;;;5.37;96.13;100365.63;4991870;28;20042;-52
2022/04/28 02:58:19;;;;;;;88.43;40.67;;;;;;;5.46;96.12;100367.16;4990468;28;20033;-51
2022/04/28 03:00:44;;;;;;;86.22;40.35;;;;;;;5.41;95.67;100366.88;4990616;28;20038;-50
2022/04/28 03:03:10;;;;;;;89.45;43.70;;;;;;;5.50;96.15;100372.97;4987280;28;20030;-50
2022/04/28 03:10:46;;;;;;;81.43;39.72;;;;;;;5.41;95.53;100364.22;4995961;28;20057;-52
2022/04/28 03:11:09;;;;;;;91.15;39.88;;;;;;;5.43;96.07;100372.03;4988723;28;20050;-50
2022/04/28 03:13:35;;;;;;;83.88;41.50;;;;;;;5.32;95.77;100366.16;4992272;28;20041;-53
2022/04/28 03:16:01;;;;;;;66.72;32.30;;;;;;;5.01;94.35;100368.06;4990855;28;20109;-51
2022/04/28 03:18:27;;;;;;;64.05;32.80;;;;;;;4.84;94.93;100376.19;4995827;28;20034;-52
2022/04/28 03:20:52;;;;;;;61.28;32.40;;;;;;;4.83;96.84;100374.50;4988124;28;20042;-50
2022/04/28 03:23:17;;;;;;;75.63;38.70;;;;;;;5.11;97.51;100381.94;4995218;28;20033;-50
2022/04/28 03:25:43;;;;;;;93.85;44.55;;;;;;;5.21;97.21;100374.53;4987961;28;20050;-51
2022/04/28 03:28:08;;;;;;;103.82;45.78;;;;;;;5.41;95.79;100377.53;4994856;28;20070;-52
2022/04/28 03:30:34;;;;;;;100.53;46.50;;;;;;;5.51;94.72;100379.94;4994091;28;20388;-49
2022/04/28 03:33:00;;;;;;;94.75;43.95;;;;;;;5.43;94.91;100377.34;4994874;28;20540;-52
2022/04/28 03:35:26;;;;;;;92.45;41.58;;;;;;;5.36;95.24;100371.94;4992749;28;20058;-52
2022/04/28 03:37:51;;;;;;;98.07;45.05;;;;;;;5.17;95.41;100376.75;4995051;28;20038;-49
2022/04/28 03:40:17;;;;;;;96.38;44.75;;;;;;;5.43;95.60;100377.34;4994345;28;20485;-52
2022/04/28 03:42:43;;;;;;;104.85;45.10;;;;;;;5.45;94.51;100375.34;4991508;28;20033;-49
2022/04/28 03:45:09;;;;;;;91.93;41.40;;;;;;;5.46;95.46;100377.00;4987559;28;20441;-50
2022/04/28 03:47:38;;;;;;;88.47;42.05;;;;;;;5.28;94.78;100377.31;4988552;28;20066;-52
2022/04/28 03:50:04;;;;;;;75.97;38.30;;;;;;;5.13;95.08;100378.09;4996153;28;20061;-51
2022/04/28 03:52:29;;;;;;;71.82;36.00;;;;;;;4.84;93.71;100380.66;4992800;28;20138;-49
2022/04/28 03:54:55;;;;;;;71.50;36.40;;;;;;;4.79;96.81;100381.19;4999430;28;20434;-50
2022/04/28 03:57:20;;;;;;;66.80;31.90;;;;;;;4.70;96.88;100388.38;4996243;28;20427;-49
2022/04/28 03:59:46;;;;;;;60.47;32.13;;;;;;;4.37;94.25;100392.22;5003433;28;20034;-52
2022/04/28 04:02:11;;;;;;;66.60;33.10;;;;;;;4.30;95.28;100389.44;4992380;28;20401;-51
2022/04/28 04:04:37;;;;;;;64.97;32.53;;;;;;;4.28;95.97;100388.78;4990256;28;20034;-51
2022/04/28 04:07:03;;;;;;;68.05;34.38;;;;;;;4.34;96.59;100393.38;4997299;28;20049;-50
2022/04/28 04:09:28;;;;;;;71.80;35.08;;;;;;;4.37;96.55;100393.06;4990452;28;20125;-51
2022/04/28 04:11:54;;;;;;;70.85;35.00;;;;;;;4.16;96.10;100395.47;4998956;28;20046;-52
2022/04/28 04:14:19;;;;;;;67.50;35.15;;;;;;;4.18;97.15;100398.78;4992740;28;20097;-49
2022/04/28 04:16:44;;;;;;;74.25;37.15;;;;;;;4.16;97.85;100401.59;4991028;28;20042;-51
2022/04/28 04:19:10;;;;;;;84.68;38.80;;;;;;;4.27;100.00;100403.06;4995649;28;20087;-51
2022/04/28 04:21:35;;;;;;;89.13;42.08;;;;;;;4.28;99.34;100400.22;4997662;28;20061;-52
2022/04/28 04:24:01;;;;;;;92.63;40.80;;;;;;;4.52;99.70;100406.44;4988966;28;21548;-52
2022/04/28 04:26:26;;;;;;;91.28;40.63;;;;;;;4.72;98.96;100406.81;4983671;28;20061;-49
2022/04/28 04:28:52;;;;;;;106.45;46.15;;;;;;;5.28;97.57;100407.38;4991453;28;20061;-49
2022/04/28 04:34:01;;;;;;;80.55;38.92;;;;;;;6.07;91.09;100412.31;5004340;28;20029;-49
2022/04/28 04:36:27;;;;;;;80.00;37.40;;;;;;;6.52;88.08;100415.75;5002832;28;20038;-50
2022/04/28 04:38:52;;;;;;;78.68;38.38;;;;;;;6.80;84.16;100415.84;4994394;28;20709;-51
2022/04/28 04:41:18;;;;;;;78.75;40.90;;;;;;;7.26;81.80;100411.97;4991661;28;20089;-50
2022/04/28 04:43:43;;;;;;;71.97;37.20;;;;;;;7.80;78.40;100415.88;4991123;28;20026;-50
2022/04/28 04:46:09;;;;;;;71.05;36.03;;;;;;;8.68;75.05;100419.63;4994934;28;20046;-51
2022/04/28 04:48:34;;;;;;;72.05;34.75;;;;;;;8.96;72.07;100429.38;5004482;28;20053;-50
2022/04/28 04:51:00;;;;;;;71.00;37.38;;;;;;;8.99;73.48;100429.00;5001445;28;20550;-54
2022/04/28 04:53:25;;;;;;;61.60;33.63;;;;;;;9.58;70.60;100432.72;5004760;28;20034;-49
2022/04/28 04:55:50;;;;;;;68.43;35.58;;;;;;;10.37;68.82;100431.78;4994589;28;20042;-53
2022/04/28 04:58:16;;;;;;;73.88;35.05;;;;;;;10.72;67.13;100429.56;4999067;28;20549;-53
2022/04/28 05:00:41;;;;;;;55.17;33.03;;;;;;;10.73;65.78;100430.38;5001116;28;20038;-53
2022/04/28 05:03:07;;;;;;;51.25;28.42;;;;;;;11.24;63.33;100442.91;4993173;28;20396;-53
2022/04/28 05:05:32;;;;;;;42.95;26.35;;;;;;;11.48;62.56;100440.44;5001599;28;20404;-53
2022/04/28 05:07:58;;;;;;;43.78;24.95;;;;;;;11.00;62.70;100444.47;4997101;28;20480;-51
2022/04/28 05:10:23;;;;;;;37.67;22.65;;;;;;;11.60;60.67;100441.38;4993743;28;20050;-53
2022/04/28 05:12:48;;;;;;;45.28;28.92;;;;;;;11.64;60.99;100448.78;4995264;28;20048;-55
2022/04/28 05:15:14;;;;;;;40.13;27.23;;;;;;;12.02;59.97;100447.03;4990228;28;20030;-53
2022/04/28 05:17:39;;;;;;;41.88;25.38;;;;;;;12.05;59.90;100451.94;4990095;28;20041;-53
2022/04/28 05:20:06;;;;;;;38.50;23.90;;;;;;;12.42;58.69;100460.03;4997294;28;20052;-49
2022/04/28 05:22:31;;;;;;;38.78;23.20;;;;;;;12.26;59.15;100462.28;4993907;28;20495;-53
2022/04/28 05:24:56;;;;;;;36.80;23.30;;;;;;;12.82;57.10;100468.44;4989502;28;20022;-53
2022/04/28 05:27:22;;;;;;;40.08;25.52;;;;;;;13.13;56.07;100464.72;4975468;28;20070;-51
2022/04/28 05:29:47;;;;;;;42.30;28.42;;;;;;;13.58;55.70;100469.66;5001841;28;20033;-52
2022/04/28 05:32:13;;;;;;;38.85;24.63;;;;;;;13.73;54.08;100476.47;4989437;28;20050;-50
2022/04/28 05:34:38;;;;;;;46.42;26.92;;;;;;;14.77;53.55;100476.59;4996800;28;20053;-51
2022/04/28 05:37:04;;;;;;;36.05;24.50;;;;;;;14.34;53.08;100472.47;4989851;28;20042;-50
2022/04/28 05:39:29;;;;;;;36.75;25.63;;;;;;;14.96;52.02;100473.75;4992179;28;20168;-53
2022/04/28 05:41:55;;;;;;;39.10;26.48;;;;;;;15.45;51.55;100477.59;4992223;28;20481;-49
2022/04/28 05:47:06;;;;;;;32.85;24.35;;;;;;;16.46;48.02;100482.09;4993808;28;20049;-53
2022/04/28 05:49:32;;;;;;;34.60;24.25;;;;;;;15.60;49.71;100489.72;4997827;28;20389;-50
2022/04/28 05:51:57;;;;;;;32.70;23.98;;;;;;;16.12;48.79;100484.06;4997270;28;20038;-53
2022/04/28 05:54:23;;;;;;;37.35;24.42;;;;;;;15.96;48.44;100494.66;4990883;28;20049;-53
2022/04/28 05:56:49;;;;;;;35.58;25.38;;;;;;;15.19;51.01;100492.53;4988378;28;20051;-52
2022/04/28 05:59:14;;;;;;;41.08;25.38;;;;;;;16.67;48.54;100504.81;4972298;28;20046;-53
2022/04/28 06:01:40;;;;;;;38.60;26.00;;;;;;;16.49;47.75;100497.84;4989798;28;20069;-53
2022/04/28 06:04:06;;;;;;;44.03;26.50;;;;;;;16.02;49.18;100500.16;5000267;28;20492;-52
2022/04/28 06:06:31;;;;;;;39.28;27.20;;;;;;;16.58;48.32;100500.94;5003795;28;20540;-53
2022/04/28 06:08:57;;;;;;;38.78;26.85;;;;;;;16.42;48.46;100497.19;4997524;28;20040;-51
2022/04/28 06:11:22;;;;;;;49.17;27.15;;;;;;;16.66;48.18;100496.97;4989508;28;20046;-54
2022/04/28 06:13:48;;;;;;;36.42;26.83;;;;;;;15.99;50.11;100503.34;4989179;28;20440;-50
2022/04/28 06:16:13;;;;;;;38.15;27.23;;;;;;;17.51;47.16;100508.22;4994071;28;20050;-50
2022/04/28 06:18:39;;;;;;;35.65;26.27;;;;;;;17.16;48.65;100507.59;4996677;28;20030;-52
2022/04/28 06:21:04;;;;;;;42.10;26.08;;;;;;;17.18;46.59;100512.78;4990180;28;20038;-50
2022/04/28 06:23:30;;;;;;;40.22;26.83;;;;;;;17.10;47.73;100502.38;4988046;28;20026;-52
2022/04/28 06:25:55;;;;;;;42.70;26.60;;;;;;;16.26;50.56;100504.28;4991340;28;20045;-50
2022/04/28 06:28:20;;;;;;;41.30;26.88;;;;;;;16.80;48.75;100514.50;4994307;28;20041;-50
2022/04/28 06:30:46;;;;;;;35.83;25.00;;;;;;;18.19;45.99;100509.31;4989943;28;20442;-51
2022/04/28 06:33:11;;;;;;;37.97;24.88;;;;;;;17.27;47.27;100510.41;4993691;28;20056;-52
2022/04/28 06:35:38;;;;;;;38.40;25.60;;;;;;;15.49;52.21;100508.47;4995432;28;20049;-49
2022/04/28 06:38:03;;;;;;;30.98;24.08;;;;;;;17.07;49.09;100513.72;4988815;28;20073;-51
2022/04/28 06:40:29;;;;;;;43.15;25.50;;;;;;;17.38;48.65;100518.41;4990599;28;20084;-52
2022/04/28 06:42:54;;;;;;;36.13;24.10;;;;;;;16.74;49.56;100515.47;4991737;28;20034;-49
2022/04/28 06:45:24;;;;;;;30.80;23.15;;;;;;;17.30;48.33;100518.03;4995189;28;20072;-52
2022/04/28 06:47:49;;;;;;;36.63;23.85;;;;;;;16.27;51.69;100518.63;4978920;28;20153;-51
2022/04/28 06:50:14;;;;;;;36.33;23.42;;;;;;;16.74;50.35;100520.88;4984897;28;20026;-53
2022/04/28 06:52:40;;;;;;;32.33;23.05;;;;;;;17.56;46.82;100528.03;4993736;28;20092;-53
2022/04/28 06:55:07;;;;;;;34.90;22.85;;;;;;;18.17;45.89;100535.91;4988118;28;20062;-51
2022/04/28 06:57:32;;;;;;;37.28;21.88;;;;;;;17.51;46.40;100527.19;4993601;28;20037;-51
2022/04/28 06:59:58;;;;;;;39.75;23.77;;;;;;;16.47;49.39;100528.91;4991540;28;20044;-52
2022/04/28 07:02:23;;;;;;;34.97;23.20;;;;;;;18.57;45.69;100531.81;4992046;28;20489;-50
2022/04/28 07:04:49;;;;;;;48.97;23.20;;;;;;;18.08;46.38;100534.75;4990972;28;20782;-52
2022/04/28 07:07:14;;;;;;;31.85;22.23;;;;;;;20.82;41.66;100536.63;4989922;28;20049;-51
2022/04/28 07:09:40;;;;;;;32.70;22.10;;;;;;;19.14;43.81;100530.94;4995271;28;20060;-52
2022/04/28 07:12:06;;;;;;;36.50;21.95;;;;;;;18.53;45.32;100541.53;4991423;28;20047;-53
2022/04/28 07:14:33;;;;;;;32.33;22.73;;;;;;;17.25;47.53;100538.59;4990911;28;20779;-53
2022/04/28 07:16:58;;;;;;;36.63;22.92;;;;;;;16.91;48.70;100537.94;4995461;28;20042;-54
2022/04/28 07:19:24;;;;;;;35.47;23.13;;;;;;;17.80;47.09;100539.41;4991035;28;20034;-50
2022/04/28 07:21:49;;;;;;;31.33;22.10;;;;;;;18.45;45.55;100533.91;4990509;28;20033;-52
2022/04/28 07:24:15;;;;;;;34.72;23.27;;;;;;;18.08;47.05;100540.16;4990983;28;20440;-53
2022/04/28 07:26:40;;;;;;;33.72;22.15;;;;;;;18.03;45.59;100543.66;4996441;28;20043;-53
2022/04/28 07:29:06;;;;;;;34.80;21.75;;;;;;;19.77;43.34;100552.56;4996153;28;20030;-52
2022/04/28 07:31:31;;;;;;;30.67;21.05;;;;;;;19.97;43.60;100550.94;4997649;28;20097;-52
2022/04/28 07:33:57;;;;;;;31.27;21.83;;;;;;;18.55;45.38;100558.38;4991426;28;20136;-50
2022/04/28 07:36:23;;;;;;;30.67;21.15;;;;;;;17.58;47.68;100546.78;4997533;28;20485;-51
2022/04/28 07:38:48;;;;;;;32.55;21.33;;;;;;;19.06;44.61;100555.91;4992028;28;20077;-53
2022/04/28 07:41:14;;;;;;;34.28;22.50;;;;;;;18.41;46.24;100565.34;5000097;28;20042;-51
2022/04/28 07:43:40;;;;;;;31.52;22.10;;;;;;;17.47;49.05;100556.69;4990948;28;20384;-53
2022/04/28 07:46:05;;;;;;;36.83;22.08;;;;;;;19.05;46.25;100557.03;4991384;28;20053;-51
2022/04/28 07:48:31;;;;;;;34.00;21.85;;;;;;;19.56;44.09;100551.69;4989681;28;20100;-50
2022/04/28 07:50:56;;;;;;;32.13;21.77;;;;;;;18.60;46.27;100558.41;4989494;28;20034;-51
2022/04/28 07:53:22;;;;;;;33.88;21.38;;;;;;;18.20;47.63;100556.28;4999337;28;20029;-51
2022/04/28 07:58:32;;;;;;;39.10;22.13;;;;;;;18.93;47.10;100559.94;4994539;28;20036;-50
2022/04/28 08:01:00;;;;;;;36.33;21.20;;;;;;;18.77;45.35;100562.84;4999908;28;20034;-52
2022/04/28 08:03:26;;;;;;;31.15;22.13;;;;;;;17.15;49.50;100560.16;4992233;28;20026;-53
2022/04/28 08:05:53;;;;;;;36.38;22.50;;;;;;;17.27;50.42;100565.41;4994704;28;20050;-52
2022/04/28 08:08:19;;;;;;;37.72;24.10;;;;;;;18.03;49.19;100564.53;4993052;28;20026;-53
2022/04/28 08:10:44;;;;;;;35.28;22.25;;;;;;;16.89;50.79;100571.75;4993232;28;20057;-53
2022/04/28 08:13:09;;;;;;;34.20;21.45;;;;;;;18.54;49.70;100581.16;4994794;28;20449;-51
2022/04/28 08:15:35;;;;;;;35.40;21.70;;;;;;;17.66;49.06;100576.13;4996201;28;20046;-53
2022/04/28 08:18:01;;;;;;;37.25;21.45;;;;;;;17.06;50.49;100569.78;4999991;28;20041;-52
2022/04/28 08:20:26;;;;;;;32.72;21.05;;;;;;;18.07;49.12;100571.91;4992596;28;20042;-51
2022/04/28 08:22:51;;;;;;;41.45;22.02;;;;;;;17.98;48.36;100578.06;4989077;28;20026;-53
2022/04/28 08:25:17;;;;;;;30.35;21.52;;;;;;;17.89;48.96;100575.81;4993324;28;20034;-50
2022/04/28 08:27:42;;;;;;;39.22;20.55;;;;;;;17.70;49.18;100577.25;4992995;28;20108;-51
2022/04/28 08:30:08;;;;;;;48.30;23.20;;;;;;;17.55;49.27;100586.06;4990368;28;20044;-50
2022/04/28 08:32:34;;;;;;;37.22;20.42;;;;;;;15.64;53.08;100583.56;4995983;28;20485;-52
2022/04/28 08:34:59;;;;;;;34.75;18.50;;;;;;;17.60;48.81;100585.28;4989819;28;20034;-52
2022/04/28 08:37:25;;;;;;;28.40;19.33;;;;;;;16.85;49.65;100576.84;4987388;28;20038;-52
2022/04/28 08:39:50;;;;;;;34.72;19.55;;;;;;;17.88;48.15;100584.22;4988860;28;20058;-53
2022/04/28 08:42:16;;;;;;;31.25;18.52;;;;;;;18.27;46.84;100582.09;4991235;28;20042;-51
2022/04/28 08:44:41;;;;;;;30.80;17.48;;;;;;;17.32;47.43;100581.72;4985913;28;20084;-51
2022/04/28 08:47:06;;;;;;;30.63;20.25;;;;;;;15.89;50.86;100593.22;4974097;28;20496;-53
2022/04/28 08:49:32;;;;;;;28.90;19.73;;;;;;;17.02;50.00;100584.91;4975617;28;20502;-54
2022/04/28 08:51:58;;;;;;;34.85;18.13;;;;;;;18.08;47.18;100587.09;4987655;28;20045;-51
2022/04/28 08:54:28;;;;;;;25.88;17.33;;;;;;;18.52;47.66;100584.16;4991979;28;20033;-52
2022/04/28 08:56:56;;;;;;;28.40;18.58;;;;;;;18.96;45.28;100583.06;4992266;28;20038;-52
2022/04/28 08:59:21;;;;;;;28.40;17.92;;;;;;;19.03;45.62;100583.63;4983473;28;20048;-52
2022/04/28 09:01:47;;;;;;;30.52;18.42;;;;;;;16.66;49.60;100583.59;4993246;28;20082;-49
2022/04/28 09:04:12;;;;;;;29.45;17.95;;;;;;;17.37;48.86;100580.97;4994330;28;20460;-50
2022/04/28 09:06:40;;;;;;;26.05;17.25;;;;;;;17.29;47.95;100582.25;4990612;28;20038;-50
2022/04/28 09:09:16;;;;;;;24.58;18.05;;;;;;;16.84;50.15;100577.09;4997587;28;20037;-50
2022/04/28 09:11:42;;;;;;;22.73;16.83;;;;;;;17.35;50.27;100583.13;4992842;28;20125;-51
2022/04/28 09:14:15;;;;;;;26.80;17.48;;;;;;;17.45;47.66;100589.47;4995612;28;20026;-53
2022/04/28 09:16:43;;;;;;;26.13;17.08;;;;;;;17.73;48.04;100590.28;4997130;28;20500;-51
2022/04/28 09:19:23;;;;;;;31.40;18.05;;;;;;;18.39;47.49;100590.03;4995114;28;20488;-51
2022/04/28 09:21:53;;;;;;;34.42;17.80;;;;;;;17.55;47.45;100579.81;4992574;28;20046;-51
2022/04/28 09:24:19;;;;;;;23.75;16.70;;;;;;;18.75;46.52;100585.69;4990479;28;20022;-53
2022/04/28 09:26:44;;;;;;;28.73;16.50;;;;;;;19.47;45.24;100583.22;4987313;28;20385;-51
2022/04/28 09:29:14;;;;;;;24.48;15.65;;;;;;;19.34;45.79;100586.44;4997862;28;20491;-50
2022/04/28 09:31:42;;;;;;;26.65;17.05;;;;;;;18.76;45.33;100594.63;4995151;28;20050;-52
2022/04/28 09:34:19;;;;;;;23.58;16.17;;;;;;;19.13;43.83;100583.66;4995658;28;20045;-50
2022/04/28 09:36:45;;;;;;;26.20;17.10;;;;;;;17.74;48.48;100581.06;4992164;28;20473;-49
2022/04/28 09:42:29;;;;;;;27.73;15.77;;;;;;;19.17;46.38;100584.78;4997808;28;20507;-52
2022/04/28 09:44:49;;;;;;;27.42;16.98;;;;;;;18.96;44.78;100580.34;4993515;28;20069;-52
2022/04/28 09:47:15;;;;;;;30.97;17.17;;;;;;;18.98;45.74;100580.09;4988064;28;20045;-51
2022/04/28 09:49:40;;;;;;;29.25;15.18;;;;;;;18.24;46.97;100582.59;4998350;28;20040;-50
2022/04/28 09:52:05;;;;;;;24.10;16.95;;;;;;;18.04;47.35;100583.25;4980434;28;20389;-50
2022/04/28 09:54:32;;;;;;;26.92;16.30;;;;;;;20.03;43.75;100568.88;4997574;28;20104;-49
2022/04/28 09:56:57;;;;;;;24.63;15.70;;;;;;;20.07;43.67;100580.88;4986828;28;20477;-52
2022/04/28 09:59:23;;;;;;;24.58;14.80;;;;;;;19.66;45.81;100574.56;4987709;28;20125;-52
2022/04/28 10:01:48;;;;;;;25.38;14.95;;;;;;;18.65;45.33;100573.91;4995261;28;20397;-51
2022/04/28 10:04:13;;;;;;;24.55;16.90;;;;;;;19.18;46.23;100575.53;4982386;28;20034;-52
2022/04/28 10:06:39;;;;;;;24.60;16.10;;;;;;;19.18;46.34;100575.53;4997779;28;20254;-51
2022/04/28 10:09:17;;;;;;;29.65;15.52;;;;;;;20.09;43.40;100569.69;4993835;28;20149;-52
2022/04/28 10:11:42;;;;;;;22.67;15.38;;;;;;;19.39;45.76;100562.00;4985581;28;20049;-53
2022/04/28 10:14:07;;;;;;;26.77;14.93;;;;;;;20.56;44.14;100563.13;4989790;28;20418;-51
2022/04/28 10:16:33;;;;;;;20.38;14.75;;;;;;;19.42;45.39;100564.19;4988469;28;20038;-53
2022/04/28 10:19:10;;;;;;;23.92;15.07;;;;;;;18.94;45.58;100564.28;4986960;28;20481;-53
2022/04/28 10:21:39;;;;;;;24.67;14.27;;;;;;;19.29;44.63;100560.06;4975245;28;20077;-53
2022/04/28 10:32:58;;;;;;;25.45;13.05;;;;;;;19.39;42.63;100553.84;4990637;28;20408;-52
2022/04/28 10:35:44;;;;;;;19.52;11.93;;;;;;;19.67;42.26;100557.13;4987139;28;20054;-51
2022/04/28 10:38:09;;;;;;;27.48;14.52;;;;;;;18.06;45.75;100550.47;4989794;28;20435;-53
2022/04/28 10:40:43;;;;;;;19.67;13.40;;;;;;;18.48;44.15;100555.09;4983803;28;20050;-53
2022/04/28 10:43:18;;;;;;;25.73;14.98;;;;;;;18.91;44.84;100542.28;4993771;28;20026;-52
2022/04/28 10:45:45;;;;;;;19.10;13.13;;;;;;;19.19;45.73;100543.72;4990386;28;20331;-54
2022/04/28 10:51:02;;;;;;;18.83;11.15;;;;;;;20.50;41.14;100550.59;4990971;28;20437;-53
2022/04/28 10:53:27;;;;;;;29.08;11.05;;;;;;;19.69;43.00;100552.28;4991979;28;20019;-53
2022/04/28 10:55:53;;;;;;;18.00;11.98;;;;;;;18.54;44.20;100548.59;4984722;28;20057;-51
2022/04/28 10:58:19;;;;;;;14.75;10.40;;;;;;;19.62;42.36;100547.09;4989355;28;20046;-52
2022/04/28 11:00:58;;;;;;;10.60;8.20;;;;;;;20.35;40.31;100543.28;4990439;28;20408;-52
2022/04/28 11:03:43;;;;;;;12.48;8.07;;;;;;;20.84;39.25;100546.16;4986142;28;20549;-52
2022/04/28 11:06:10;;;;;;;13.93;8.10;;;;;;;21.42;37.74;100533.88;5000881;28;20499;-52
2022/04/28 11:08:37;;;;;;;14.68;8.43;;;;;;;21.01;37.31;100540.34;4996574;28;20033;-52
2022/04/28 11:11:07;;;;;;;13.52;7.40;;;;;;;19.92;38.18;100542.75;4995093;28;20046;-53
2022/04/28 11:13:32;;;;;;;12.20;6.40;;;;;;;20.45;37.46;100538.63;4990210;28;20081;-53
2022/04/28 11:15:58;;;;;;;9.55;6.95;;;;;;;19.33;37.19;100538.63;4980227;28;20481;-54
2022/04/28 11:18:24;;;;;;;7.50;5.43;;;;;;;18.86;39.23;100539.56;4994446;28;20128;-53
2022/04/28 11:20:50;;;;;;;14.50;6.53;;;;;;;20.67;37.74;100534.78;5000509;28;20050;-52
2022/04/28 11:23:18;;;;;;;11.73;6.97;;;;;;;18.48;39.09;100545.03;4990398;28;20022;-51
2022/04/28 11:25:44;;;;;;;11.57;6.68;;;;;;;18.00;40.22;100524.38;4993217;28;20577;-52
2022/04/28 11:28:09;;;;;;;10.50;6.18;;;;;;;18.60;39.64;100533.97;4996706;28;20027;-51
2022/04/28 11:30:35;;;;;;;9.95;6.68;;;;;;;18.18;40.24;100534.00;4990932;28;20045;-51
2022/04/28 11:33:00;;;;;;;14.52;7.90;;;;;;;19.01;39.03;100531.44;4987063;28;20046;-53
2022/04/28 11:35:30;;;;;;;13.20;6.78;;;;;;;20.00;37.85;100526.72;4995424;28;20046;-54
2022/04/28 11:37:56;;;;;;;8.02;5.90;;;;;;;19.86;37.05;100533.78;4994501;28;20030;-53
2022/04/28 11:40:24;;;;;;;12.45;5.57;;;;;;;19.48;36.81;100530.47;4998426;28;20393;-51